Time;durP1;ratioP1;P1;durP2;ratioP2;P2;SDS_P1;SDS_P2;PMS_P1;PMS_P2;Temp;Humidity;BMP_temperature;BMP_pressure;BME280_temperature;BME280_humidity;BME280_pressure;Samples;Min_cycle;Max_cycle;Signal;HPM_P1;HPM_P2
2021/11/14 00:01:08;;;;;;;22.70;20.30;;;;;22.30;100517.00;;;;2070501;28;20254;-51
2021/11/14 00:02:09;;;;;;;21.23;19.10;;;;;22.30;100522.00;;;;2075520;28;20220;-53
2021/11/14 00:03:09;;;;;;;22.93;20.50;;;;;22.30;100521.00;;;;2078884;28;20237;-53
2021/11/14 00:04:10;;;;;;;21.00;18.90;;;;;22.30;100519.00;;;;2078342;28;20630;-52
2021/11/14 00:05:10;;;;;;;23.20;20.23;;;;;22.20;100520.00;;;;2078517;28;20252;-50
2021/11/14 00:06:10;;;;;;;21.37;18.87;;;;;22.20;100516.00;;;;2075385;28;20218;-52
2021/11/14 00:07:11;;;;;;;20.60;18.60;;;;;22.20;100523.00;;;;2075246;28;20266;-50
2021/11/14 00:08:12;;;;;;;20.53;18.20;;;;;22.30;100528.00;;;;2073140;28;20302;-51
2021/11/14 00:09:13;;;;;;;20.50;18.25;;;;;22.20;100526.00;;;;2071401;28;20263;-51
2021/11/14 00:10:13;;;;;;;20.80;17.53;;;;;22.20;100523.00;;;;2070934;28;20225;-52
2021/11/14 00:11:14;;;;;;;20.30;18.10;;;;;22.20;100526.00;;;;2071057;28;20259;-53
2021/11/14 00:12:15;;;;;;;20.55;18.40;;;;;22.20;100523.00;;;;2078206;28;21277;-51
2021/11/14 00:13:15;;;;;;;19.10;17.10;;;;;22.20;100529.00;;;;2077857;28;20272;-53
2021/11/14 00:14:15;;;;;;;21.30;17.60;;;;;22.20;100524.00;;;;2074920;28;20277;-52
2021/11/14 00:15:16;;;;;;;20.13;17.13;;;;;22.20;100514.00;;;;2078025;28;20218;-52
2021/11/14 00:16:17;;;;;;;18.47;16.20;;;;;22.20;100532.00;;;;2078275;28;20288;-51
2021/11/14 00:17:18;;;;;;;18.92;17.02;;;;;22.20;100525.00;;;;2077568;28;20712;-53
2021/11/14 00:18:18;;;;;;;17.70;15.90;;;;;22.20;100518.00;;;;2076825;28;20213;-51
2021/11/14 00:19:19;;;;;;;17.33;15.63;;;;;22.20;100527.00;;;;2076980;28;20210;-52
2021/11/14 00:20:19;;;;;;;18.37;16.50;;;;;22.20;100524.00;;;;2078024;28;20222;-52
2021/11/14 00:21:20;;;;;;;17.97;16.07;;;;;22.20;100523.00;;;;2075453;28;20225;-52
2021/11/14 00:22:21;;;;;;;18.20;15.98;;;;;22.20;100526.00;;;;2078287;28;20214;-51
2021/11/14 00:23:21;;;;;;;16.67;15.03;;;;;22.20;100521.00;;;;2077911;28;20228;-52
2021/11/14 00:24:22;;;;;;;17.33;15.53;;;;;22.10;100527.00;;;;2078082;28;20275;-52
2021/11/14 00:25:22;;;;;;;16.87;15.17;;;;;22.20;100526.00;;;;2078264;28;20828;-52
2021/11/14 00:26:22;;;;;;;15.77;14.17;;;;;22.20;100479.00;;;;2078076;28;20600;-51
2021/11/14 00:27:23;;;;;;;16.57;14.87;;;;;22.10;100525.00;;;;2078157;28;20222;-51
2021/11/14 00:28:23;;;;;;;16.73;14.97;;;;;22.10;100523.00;;;;2078012;28;20218;-52
2021/11/14 00:29:23;;;;;;;15.07;13.53;;;;;22.10;100528.00;;;;2074194;28;20239;-52
2021/11/14 00:30:24;;;;;;;15.97;14.37;;;;;22.10;100527.00;;;;2085687;28;20738;-53
2021/11/14 00:31:24;;;;;;;15.90;14.30;;;;;22.10;100525.00;;;;2075436;28;20674;-53
2021/11/14 00:32:25;;;;;;;15.57;13.97;;;;;22.10;100525.00;;;;2077874;28;20641;-53
2021/11/14 00:33:26;;;;;;;16.98;15.38;;;;;22.10;100524.00;;;;2077855;28;20232;-52
2021/11/14 00:34:26;;;;;;;14.80;13.30;;;;;22.10;100528.00;;;;2078162;28;20219;-53
2021/11/14 00:35:26;;;;;;;15.07;13.57;;;;;22.10;100529.00;;;;2078169;28;20959;-52
2021/11/14 00:36:30;;;;;;;13.77;12.47;;;;;22.10;100530.00;;;;2075590;28;20225;-52
2021/11/14 00:37:34;;;;;;;15.23;13.70;;;;;22.10;100535.00;;;;2072073;28;21035;-53
2021/11/14 00:38:34;;;;;;;14.23;12.82;;;;;22.10;100536.00;;;;2072030;28;20220;-53
2021/11/14 00:39:35;;;;;;;13.97;12.70;;;;;22.10;100536.00;;;;2070902;28;20684;-53
2021/11/14 00:40:36;;;;;;;13.37;12.03;;;;;22.10;100535.00;;;;2069593;28;20641;-50
2021/11/14 00:41:36;;;;;;;14.20;12.80;;;;;22.10;100536.00;;;;2069795;28;20226;-53
2021/11/14 00:42:37;;;;;;;15.20;12.20;;;;;22.10;100536.00;;;;2069649;28;20296;-52
2021/11/14 00:43:37;;;;;;;13.43;12.13;;;;;22.10;100541.00;;;;2069940;28;20202;-51
2021/11/14 00:44:38;;;;;;;13.87;12.57;;;;;22.10;100538.00;;;;2069817;28;20203;-51
2021/11/14 00:45:40;;;;;;;14.40;12.90;;;;;22.10;100532.00;;;;2069901;28;20667;-51
2021/11/14 00:46:40;;;;;;;13.82;12.52;;;;;22.00;100531.00;;;;2069860;28;20210;-50
2021/11/14 00:47:44;;;;;;;13.60;12.23;;;;;22.10;100539.00;;;;2069920;28;21048;-51
2021/11/14 00:48:44;;;;;;;14.10;12.80;;;;;22.00;100533.00;;;;2068915;28;20637;-52
2021/11/14 00:49:46;;;;;;;14.97;13.47;;;;;22.00;100539.00;;;;2069318;28;20268;-52
2021/11/14 00:50:47;;;;;;;13.68;12.35;;;;;22.00;100532.00;;;;2069710;28;20226;-52
2021/11/14 00:51:48;;;;;;;13.33;12.03;;;;;22.00;100530.00;;;;2068000;28;20214;-52
2021/11/14 00:52:48;;;;;;;13.20;11.97;;;;;22.00;100530.00;;;;2070328;28;20792;-51
2021/11/14 00:53:48;;;;;;;12.80;11.60;;;;;22.00;100533.00;;;;2070314;28;20977;-52
2021/11/14 00:54:49;;;;;;;12.63;11.43;;;;;22.00;100533.00;;;;2070374;28;20324;-52
2021/11/14 00:55:49;;;;;;;13.43;12.13;;;;;22.00;100530.00;;;;2070401;28;20222;-52
2021/11/14 00:56:49;;;;;;;12.07;10.87;;;;;22.00;100535.00;;;;2070370;28;20336;-52
2021/11/14 00:57:50;;;;;;;13.90;12.50;;;;;22.00;100531.00;;;;2070539;28;20210;-50
2021/11/14 00:58:50;;;;;;;12.40;11.10;;;;;22.00;100541.00;;;;2068952;28;20210;-52
2021/11/14 00:59:51;;;;;;;12.50;11.40;;;;;22.00;100530.00;;;;2070114;28;20297;-51
2021/11/14 01:00:52;;;;;;;13.13;11.83;;;;;22.00;100538.00;;;;2069427;28;20230;-51
2021/11/14 01:01:52;;;;;;;13.07;11.73;;;;;22.00;100529.00;;;;2070183;28;20600;-51
2021/11/14 01:02:53;;;;;;;12.33;11.23;;;;;21.90;100528.00;;;;2070407;28;20225;-52
2021/11/14 01:03:53;;;;;;;12.17;11.07;;;;;22.00;100536.00;;;;2070370;28;20717;-52
2021/11/14 01:04:53;;;;;;;12.17;11.00;;;;;22.00;100539.00;;;;2069254;28;24968;-53
2021/11/14 01:05:54;;;;;;;11.50;10.43;;;;;21.90;100541.00;;;;2069598;28;20218;-52
2021/11/14 01:06:54;;;;;;;11.90;10.80;;;;;22.00;100536.00;;;;2071967;28;20696;-50
2021/11/14 01:07:54;;;;;;;13.47;12.17;;;;;22.00;100547.00;;;;2072955;28;20214;-51
2021/11/14 01:08:55;;;;;;;13.60;11.77;;;;;22.00;100548.00;;;;2071541;28;20225;-52
2021/11/14 01:09:55;;;;;;;10.93;10.03;;;;;22.00;100548.00;;;;2072055;28;20218;-52
2021/11/14 01:10:56;;;;;;;11.60;10.50;;;;;22.00;100549.00;;;;2071385;28;20206;-52
2021/11/14 01:11:57;;;;;;;12.13;11.02;;;;;22.00;100548.00;;;;2070178;28;20267;-51
2021/11/14 01:12:57;;;;;;;11.83;10.63;;;;;21.90;100556.00;;;;2071097;28;20272;-52
2021/11/14 01:13:57;;;;;;;11.77;10.67;;;;;21.90;100549.00;;;;2070756;28;20237;-52
2021/11/14 01:14:58;;;;;;;12.53;10.70;;;;;21.90;100555.00;;;;2070148;28;20298;-51
2021/11/14 01:15:59;;;;;;;11.80;10.70;;;;;21.90;100559.00;;;;2068041;28;20681;-52
2021/11/14 01:16:59;;;;;;;12.23;10.98;;;;;21.90;100556.00;;;;2067543;28;20236;-51
2021/11/14 01:18:00;;;;;;;11.13;10.03;;;;;21.90;100554.00;;;;2070429;28;20221;-52
2021/11/14 01:19:00;;;;;;;12.33;11.13;;;;;21.90;100558.00;;;;2069313;28;20214;-52
2021/11/14 01:20:01;;;;;;;11.77;10.73;;;;;21.90;100562.00;;;;2070097;28;20226;-49
2021/11/14 01:21:03;;;;;;;11.57;10.57;;;;;21.90;100561.00;;;;2070189;28;20218;-51
2021/11/14 01:22:04;;;;;;;11.15;10.07;;;;;21.90;100560.00;;;;2066632;28;20221;-51
2021/11/14 01:23:05;;;;;;;12.07;10.97;;;;;21.90;100573.00;;;;2069807;28;20229;-51
2021/11/14 01:24:05;;;;;;;11.52;10.43;;;;;21.90;100560.00;;;;2069605;28;20222;-51
2021/11/14 01:25:07;;;;;;;11.13;9.70;;;;;21.90;100565.00;;;;2069595;28;20217;-52
2021/11/14 01:26:07;;;;;;;10.93;9.95;;;;;21.90;100568.00;;;;2069347;28;20210;-51
2021/11/14 01:27:07;;;;;;;11.50;10.40;;;;;21.90;100568.00;;;;2067239;28;20686;-50
2021/11/14 01:28:08;;;;;;;11.57;10.53;;;;;21.90;100569.00;;;;2068695;28;20276;-51
2021/11/14 01:29:08;;;;;;;10.70;9.50;;;;;21.90;100567.00;;;;2068869;28;20297;-52
2021/11/14 01:30:11;;;;;;;10.50;9.50;;;;;21.90;100568.00;;;;2070473;28;20257;-52
2021/11/14 01:31:11;;;;;;;12.38;11.20;;;;;21.80;100568.00;;;;2071349;28;20214;-50
2021/11/14 01:32:12;;;;;;;9.93;9.03;;;;;21.80;100573.00;;;;2070472;28;20245;-51
2021/11/14 01:33:14;;;;;;;10.90;9.70;;;;;21.80;100566.00;;;;2069703;28;20214;-51
2021/11/14 01:34:14;;;;;;;11.45;10.35;;;;;21.80;100574.00;;;;2069309;28;20671;-51
2021/11/14 01:35:15;;;;;;;10.37;9.47;;;;;21.80;100570.00;;;;2069899;28;20210;-52
2021/11/14 01:36:15;;;;;;;9.87;8.97;;;;;21.80;100575.00;;;;2067307;28;20228;-50
2021/11/14 01:37:16;;;;;;;10.70;9.70;;;;;21.80;100573.00;;;;2069420;28;20272;-52
2021/11/14 01:38:16;;;;;;;11.10;9.90;;;;;21.80;100573.00;;;;2069175;28;20577;-51
2021/11/14 01:39:17;;;;;;;10.17;9.20;;;;;21.80;100575.00;;;;2068270;28;20732;-52
2021/11/14 01:40:21;;;;;;;10.17;9.27;;;;;21.80;100579.00;;;;2069246;28;20230;-52
2021/11/14 01:41:21;;;;;;;9.98;8.95;;;;;21.80;100574.00;;;;2074059;28;20225;-51
2021/11/14 01:42:21;;;;;;;10.53;9.63;;;;;21.80;100576.00;;;;2077714;28;20292;-49
2021/11/14 01:43:23;;;;;;;11.00;10.00;;;;;21.80;100581.00;;;;2077589;28;20225;-51
2021/11/14 01:44:24;;;;;;;10.88;9.80;;;;;21.80;100581.00;;;;2074488;28;20210;-52
2021/11/14 01:45:24;;;;;;;10.67;9.67;;;;;21.80;100579.00;;;;2072753;28;20211;-52
2021/11/14 01:46:25;;;;;;;9.50;8.60;;;;;21.80;100581.00;;;;2070796;28;20905;-52
2021/11/14 01:47:25;;;;;;;10.50;9.53;;;;;21.80;100577.00;;;;2070041;28;20580;-52
2021/11/14 01:48:25;;;;;;;9.63;8.73;;;;;21.80;100582.00;;;;2069382;28;20221;-51
2021/11/14 01:49:26;;;;;;;10.07;9.17;;;;;21.80;100583.00;;;;2068701;28;20722;-51
2021/11/14 01:50:26;;;;;;;10.73;9.83;;;;;21.80;100581.00;;;;2069847;28;20218;-50
2021/11/14 01:51:28;;;;;;;10.93;9.93;;;;;21.80;100583.00;;;;2067735;28;20291;-50
2021/11/14 01:52:29;;;;;;;10.38;9.48;;;;;21.70;100587.00;;;;2069855;28;20714;-50
2021/11/14 01:53:30;;;;;;;9.65;8.88;;;;;21.80;100588.00;;;;2069615;28;20869;-50
2021/11/14 01:54:30;;;;;;;9.63;8.73;;;;;21.80;100595.00;;;;2069727;28;20260;-50
2021/11/14 01:55:31;;;;;;;9.57;8.77;;;;;21.70;100592.00;;;;2069487;28;21390;-50
2021/11/14 01:56:31;;;;;;;9.70;8.90;;;;;21.70;100589.00;;;;2067321;28;20300;-50
2021/11/14 01:57:32;;;;;;;9.90;8.90;;;;;21.70;100595.00;;;;2069486;28;20206;-50
2021/11/14 01:58:32;;;;;;;10.33;9.43;;;;;21.70;100590.00;;;;2069413;28;20221;-50
2021/11/14 01:59:35;;;;;;;10.77;9.77;;;;;21.70;100582.00;;;;2068370;28;20776;-50
2021/11/14 02:00:44;;;;;;;9.27;8.50;;;;;21.70;100555.00;;;;2069914;28;20261;-49
2021/11/14 02:01:46;;;;;;;9.27;8.48;;;;;21.80;100595.00;;;;2063932;28;20240;-50
2021/11/14 02:02:46;;;;;;;9.40;8.60;;;;;21.70;100596.00;;;;2076951;28;20703;-54
2021/11/14 02:03:49;;;;;;;9.50;8.70;;;;;21.70;100592.00;;;;2073728;28;20229;-52
2021/11/14 02:04:49;;;;;;;9.82;8.93;;;;;21.70;100589.00;;;;2070041;28;20241;-51
2021/11/14 02:05:50;;;;;;;9.00;8.10;;;;;21.70;100586.00;;;;2070161;28;20263;-49
2021/11/14 02:06:50;;;;;;;9.50;8.70;;;;;21.70;100596.00;;;;2076918;28;20289;-50
2021/11/14 02:07:51;;;;;;;9.80;8.80;;;;;21.70;100600.00;;;;2078250;28;20222;-50
2021/11/14 02:08:52;;;;;;;8.35;7.55;;;;;21.70;100594.00;;;;2076977;28;20316;-50
2021/11/14 02:09:52;;;;;;;9.73;8.83;;;;;21.70;100598.00;;;;2078166;28;20256;-50
2021/11/14 02:10:53;;;;;;;9.37;8.40;;;;;21.70;100603.00;;;;2077775;28;20210;-50
2021/11/14 02:11:53;;;;;;;9.90;9.10;;;;;21.70;100600.00;;;;2078275;28;20628;-50
2021/11/14 02:12:54;;;;;;;9.60;8.70;;;;;21.70;100602.00;;;;2069301;28;20226;-50
2021/11/14 02:13:54;;;;;;;9.90;9.00;;;;;21.70;100603.00;;;;2069246;28;20221;-50
2021/11/14 02:14:55;;;;;;;9.00;8.20;;;;;21.70;100606.00;;;;2074861;28;20207;-50
2021/11/14 02:15:55;;;;;;;9.67;8.83;;;;;21.70;100604.00;;;;2073076;28;20210;-50
2021/11/14 02:16:56;;;;;;;8.83;8.03;;;;;21.70;100608.00;;;;2070010;28;20657;-51
2021/11/14 02:17:56;;;;;;;9.30;8.50;;;;;21.70;100606.00;;;;2073406;28;20260;-50
2021/11/14 02:18:56;;;;;;;9.07;8.20;;;;;21.70;100609.00;;;;2069305;28;20214;-50
2021/11/14 02:19:57;;;;;;;8.43;7.73;;;;;21.70;100611.00;;;;2070760;28;20689;-50
2021/11/14 02:20:57;;;;;;;9.10;8.20;;;;;21.70;100606.00;;;;2070901;28;20301;-50
2021/11/14 02:21:58;;;;;;;8.77;7.97;;;;;21.70;100607.00;;;;2068961;28;20210;-50
2021/11/14 02:22:58;;;;;;;10.03;9.17;;;;;21.70;100604.00;;;;2069499;28;20210;-50
2021/11/14 02:23:58;;;;;;;9.63;8.73;;;;;21.70;100621.00;;;;2071214;28;20289;-50
2021/11/14 02:24:59;;;;;;;8.70;7.93;;;;;21.70;100609.00;;;;2071041;28;20206;-50
2021/11/14 02:25:59;;;;;;;9.63;8.77;;;;;21.70;100610.00;;;;2077981;28;20213;-50
2021/11/14 02:27:00;;;;;;;8.73;7.93;;;;;21.70;100610.00;;;;2068838;28;20276;-50
2021/11/14 02:28:00;;;;;;;9.77;8.90;;;;;21.70;100609.00;;;;2075620;28;20218;-50
2021/11/14 02:29:01;;;;;;;9.17;8.27;;;;;21.70;100604.00;;;;2077900;28;20224;-50
2021/11/14 02:30:02;;;;;;;10.20;9.20;;;;;21.70;100605.00;;;;2078554;28;20697;-50
2021/11/14 02:31:03;;;;;;;9.32;8.52;;;;;21.70;100615.00;;;;2078577;28;20811;-51
2021/11/14 02:32:04;;;;;;;8.43;7.73;;;;;21.60;100622.00;;;;2079002;28;20290;-50
2021/11/14 02:33:04;;;;;;;8.90;8.10;;;;;21.40;100612.00;;;;2078786;28;20228;-51
2021/11/14 02:34:04;;;;;;;9.40;8.50;;;;;21.60;100614.00;;;;2078988;28;20221;-51
2021/11/14 02:35:05;;;;;;;9.97;9.17;;;;;21.60;100627.00;;;;2079126;28;20245;-50
2021/11/14 02:36:07;;;;;;;8.63;7.83;;;;;21.60;100624.00;;;;2078903;28;20678;-50
2021/11/14 02:37:08;;;;;;;8.90;8.15;;;;;21.60;100619.00;;;;2078931;28;20266;-51
2021/11/14 02:38:08;;;;;;;9.50;8.60;;;;;21.60;100623.00;;;;2078497;28;20201;-50
2021/11/14 02:39:08;;;;;;;9.60;8.80;;;;;21.60;100615.00;;;;2077437;28;20216;-50
2021/11/14 02:40:11;;;;;;;9.17;8.37;;;;;21.60;100624.00;;;;2078500;28;20217;-50
2021/11/14 02:41:12;;;;;;;9.60;8.65;;;;;21.60;100617.00;;;;2078572;28;20278;-50
2021/11/14 02:42:12;;;;;;;8.70;8.00;;;;;21.60;100619.00;;;;2076209;28;20655;-50
2021/11/14 02:43:13;;;;;;;8.37;7.67;;;;;21.60;100625.00;;;;2078085;28;20213;-50
2021/11/14 02:44:13;;;;;;;8.40;7.70;;;;;21.60;100618.00;;;;2077846;28;20225;-51
2021/11/14 02:45:15;;;;;;;9.63;8.67;;;;;21.60;100624.00;;;;2073959;28;20551;-50
2021/11/14 02:46:16;;;;;;;9.02;8.23;;;;;21.60;100614.00;;;;2073574;28;20217;-50
2021/11/14 02:47:16;;;;;;;9.03;8.13;;;;;21.60;100624.00;;;;2072163;28;20218;-51
2021/11/14 02:48:16;;;;;;;9.63;8.83;;;;;21.60;100628.00;;;;2070842;28;20264;-51
2021/11/14 02:49:17;;;;;;;8.80;7.97;;;;;21.60;100622.00;;;;2073100;28;20244;-51
2021/11/14 02:50:17;;;;;;;8.73;8.03;;;;;21.50;100614.00;;;;2078183;28;20214;-50
2021/11/14 02:51:21;;;;;;;9.40;8.50;;;;;21.60;100622.00;;;;2068142;28;20292;-50
2021/11/14 02:52:22;;;;;;;9.30;8.50;;;;;21.50;100617.00;;;;2075880;28;20217;-51
2021/11/14 02:53:22;;;;;;;9.33;8.50;;;;;21.50;100624.00;;;;2069939;28;20222;-51
2021/11/14 02:54:22;;;;;;;8.73;8.00;;;;;21.50;100619.00;;;;2070670;28;20218;-51
2021/11/14 02:55:24;;;;;;;9.57;8.77;;;;;21.50;100624.00;;;;2071303;28;20214;-51
2021/11/14 02:56:24;;;;;;;8.48;7.78;;;;;21.50;100612.00;;;;2071039;28;20705;-51
2021/11/14 02:57:25;;;;;;;9.40;8.50;;;;;21.50;100620.00;;;;2068837;28;20224;-50
2021/11/14 02:58:27;;;;;;;8.50;7.80;;;;;21.50;100620.00;;;;2071152;28;20229;-50
2021/11/14 02:59:28;;;;;;;9.32;8.43;;;;;21.50;100612.00;;;;2069622;28;20221;-51
2021/11/14 03:00:32;;;;;;;9.63;8.80;;;;;21.50;100619.00;;;;2070958;28;20304;-51
2021/11/14 03:01:38;;;;;;;9.63;8.82;;;;;21.50;100614.00;;;;2071335;28;20301;-50
2021/11/14 03:02:39;;;;;;;8.50;7.63;;;;;21.50;100626.00;;;;2071101;28;20706;-50
2021/11/14 03:03:39;;;;;;;8.97;8.17;;;;;21.50;100622.00;;;;2070962;28;20218;-50
2021/11/14 03:04:40;;;;;;;8.93;8.17;;;;;21.50;100620.00;;;;2070658;28;20941;-50
2021/11/14 03:05:40;;;;;;;9.10;8.30;;;;;21.50;100627.00;;;;2071257;28;20290;-50
2021/11/14 03:06:41;;;;;;;9.30;8.50;;;;;21.50;100626.00;;;;2071310;28;20737;-51
2021/11/14 03:07:42;;;;;;;9.47;8.67;;;;;21.50;100631.00;;;;2071338;28;20261;-50
2021/11/14 03:08:42;;;;;;;9.07;8.38;;;;;21.50;100632.00;;;;2073005;28;20643;-51
2021/11/14 03:09:43;;;;;;;9.77;8.97;;;;;21.50;100634.00;;;;2071660;28;20210;-51
2021/11/14 03:10:43;;;;;;;9.17;8.27;;;;;21.50;100634.00;;;;2071985;28;20278;-51
2021/11/14 03:11:44;;;;;;;8.87;8.07;;;;;21.50;100637.00;;;;2070703;28;20219;-50
2021/11/14 03:13:02;;;;;;;7.97;7.28;;;;;21.50;100634.00;;;;2070928;28;20222;-50
2021/11/14 03:14:03;;;;;;;9.07;8.25;;;;;21.50;100633.00;;;;2070882;28;20220;-51
2021/11/14 03:15:04;;;;;;;8.77;8.07;;;;;21.50;100628.00;;;;2074900;28;20563;-51
2021/11/14 03:16:08;;;;;;;8.83;8.07;;;;;21.50;100638.00;;;;2074538;28;20216;-51
2021/11/14 03:17:09;;;;;;;9.32;8.25;;;;;21.50;100636.00;;;;2073823;28;20543;-50
2021/11/14 03:18:09;;;;;;;7.83;7.23;;;;;21.50;100649.00;;;;2072577;28;20644;-51
2021/11/14 03:19:10;;;;;;;8.90;8.20;;;;;21.50;100639.00;;;;2069787;28;20301;-51
2021/11/14 03:20:11;;;;;;;8.90;8.10;;;;;21.50;100653.00;;;;2070813;28;20725;-51
2021/11/14 03:21:11;;;;;;;9.70;8.73;;;;;21.50;100577.00;;;;2071071;28;20449;-51
2021/11/14 03:22:11;;;;;;;9.27;8.40;;;;;21.50;100652.00;;;;2071157;28;20237;-51
2021/11/14 03:23:12;;;;;;;8.43;7.73;;;;;21.40;100648.00;;;;2075216;28;20209;-50
2021/11/14 03:24:12;;;;;;;7.67;7.07;;;;;21.50;100608.00;;;;2074407;28;20742;-51
2021/11/14 03:25:13;;;;;;;8.70;8.00;;;;;21.50;100655.00;;;;2074322;28;20691;-50
2021/11/14 03:26:13;;;;;;;8.57;7.77;;;;;21.40;100651.00;;;;2072991;28;20260;-50
2021/11/14 03:27:14;;;;;;;8.87;8.07;;;;;21.50;100655.00;;;;2070797;28;20206;-50
2021/11/14 03:28:14;;;;;;;8.57;7.80;;;;;21.50;100653.00;;;;2070873;28;20287;-50
2021/11/14 03:29:14;;;;;;;7.90;7.30;;;;;21.40;100655.00;;;;2073319;28;20218;-50
2021/11/14 03:30:15;;;;;;;7.77;7.10;;;;;21.40;100654.00;;;;2071707;28;20210;-51
2021/11/14 03:31:15;;;;;;;8.87;8.17;;;;;21.40;100655.00;;;;2070631;28;20206;-51
2021/11/14 03:32:15;;;;;;;8.47;7.77;;;;;21.50;100660.00;;;;2070242;28;20297;-51
2021/11/14 03:33:16;;;;;;;7.80;7.20;;;;;21.40;100657.00;;;;2071536;28;20210;-51
2021/11/14 03:34:16;;;;;;;8.00;7.30;;;;;21.40;100656.00;;;;2078089;28;20214;-51
2021/11/14 03:35:17;;;;;;;8.20;7.50;;;;;21.40;100662.00;;;;2072612;28;20809;-50
2021/11/14 03:36:18;;;;;;;8.63;7.93;;;;;21.40;100664.00;;;;2070042;28;21134;-51
2021/11/14 03:37:19;;;;;;;7.73;7.13;;;;;21.40;100673.00;;;;2070455;28;20538;-51
2021/11/14 03:38:23;;;;;;;7.60;6.90;;;;;21.40;100672.00;;;;2070679;28;20565;-51
2021/11/14 03:39:23;;;;;;;7.93;7.20;;;;;21.40;100675.00;;;;2074250;28;20308;-51
2021/11/14 03:40:24;;;;;;;7.60;7.00;;;;;21.40;100670.00;;;;2078656;28;20765;-50
2021/11/14 03:41:44;;;;;;;8.37;7.67;;;;;21.40;100674.00;;;;2078859;28;20213;-51
2021/11/14 03:42:45;;;;;;;8.13;7.43;;;;;21.40;100681.00;;;;2078142;28;20590;-49
2021/11/14 03:43:45;;;;;;;8.50;7.80;;;;;21.40;100675.00;;;;2078981;28;20245;-51
2021/11/14 03:44:46;;;;;;;9.90;7.60;;;;;21.40;100675.00;;;;2078095;28;20663;-51
2021/11/14 03:45:46;;;;;;;9.13;8.33;;;;;21.40;100676.00;;;;2078285;28;20559;-51
2021/11/14 03:46:46;;;;;;;8.17;7.47;;;;;21.40;100675.00;;;;2075429;28;20245;-50
2021/11/14 03:47:47;;;;;;;8.23;7.53;;;;;21.40;100675.00;;;;2078646;28;20217;-50
2021/11/14 03:48:48;;;;;;;8.33;7.70;;;;;21.30;100679.00;;;;2078190;28;20217;-51
2021/11/14 03:49:48;;;;;;;7.07;6.55;;;;;21.40;100684.00;;;;2071973;28;20683;-51
2021/11/14 03:50:49;;;;;;;11.20;7.50;;;;;21.40;100678.00;;;;2071488;28;20301;-50
2021/11/14 03:51:49;;;;;;;8.30;7.50;;;;;21.40;100676.00;;;;2066370;28;20727;-50
2021/11/14 03:52:50;;;;;;;8.10;7.40;;;;;21.40;100678.00;;;;2070664;28;20253;-51
2021/11/14 03:53:51;;;;;;;8.60;7.80;;;;;21.40;100681.00;;;;2070773;28;20222;-51
2021/11/14 03:54:51;;;;;;;8.37;7.67;;;;;21.30;100679.00;;;;2070847;28;20214;-51
2021/11/14 03:55:55;;;;;;;8.60;7.90;;;;;21.40;100679.00;;;;2073903;28;20479;-50
2021/11/14 03:56:55;;;;;;;8.60;7.80;;;;;21.40;100684.00;;;;2074930;28;21685;-51
2021/11/14 03:57:55;;;;;;;8.73;7.93;;;;;21.30;100684.00;;;;2072597;28;20219;-50
2021/11/14 03:58:56;;;;;;;9.10;8.30;;;;;21.20;100684.00;;;;2071014;28;20222;-51
2021/11/14 03:59:56;;;;;;;9.33;8.53;;;;;21.30;100687.00;;;;2070542;28;21728;-50
2021/11/14 04:00:59;;;;;;;8.97;8.23;;;;;21.30;100688.00;;;;2070390;28;20210;-51
2021/11/14 04:02:00;;;;;;;9.75;8.85;;;;;21.30;100688.00;;;;2070856;28;20210;-51
2021/11/14 04:03:00;;;;;;;9.83;9.03;;;;;21.30;100692.00;;;;2070673;28;20229;-51
2021/11/14 04:04:00;;;;;;;10.17;9.27;;;;;21.30;100691.00;;;;2070654;28;20242;-51
2021/11/14 04:05:01;;;;;;;10.80;9.70;;;;;21.40;100686.00;;;;2074587;28;20291;-50
2021/11/14 04:06:01;;;;;;;10.13;9.30;;;;;21.40;100692.00;;;;2078865;28;20217;-51
2021/11/14 04:07:02;;;;;;;11.17;10.17;;;;;21.40;100695.00;;;;2078905;28;20241;-50
2021/11/14 04:08:06;;;;;;;11.73;10.73;;;;;21.30;100697.00;;;;2078905;28;20324;-51
2021/11/14 04:09:07;;;;;;;10.75;9.85;;;;;21.30;100692.00;;;;2077593;28;20218;-52
2021/11/14 04:10:07;;;;;;;11.03;10.13;;;;;21.30;100697.00;;;;2078373;28;20245;-52
2021/11/14 04:11:08;;;;;;;12.00;10.90;;;;;21.40;100703.00;;;;2078281;28;20210;-51
2021/11/14 04:12:09;;;;;;;12.00;10.90;;;;;21.40;100703.00;;;;2078806;28;20213;-52
2021/11/14 04:13:09;;;;;;;11.73;10.73;;;;;21.30;100701.00;;;;2078608;28;20705;-52
2021/11/14 04:14:09;;;;;;;12.60;11.40;;;;;21.30;100710.00;;;;2078735;28;20213;-51
2021/11/14 04:15:11;;;;;;;12.50;11.50;;;;;21.40;100703.00;;;;2078780;28;20213;-51
2021/11/14 04:16:11;;;;;;;12.93;11.73;;;;;21.30;100706.00;;;;2078682;28;20221;-51
2021/11/14 04:17:12;;;;;;;12.30;11.20;;;;;21.30;100708.00;;;;2078724;28;20218;-51
2021/11/14 04:18:12;;;;;;;12.70;11.60;;;;;21.30;100708.00;;;;2078841;28;20226;-50
2021/11/14 04:19:13;;;;;;;12.83;11.67;;;;;21.30;100711.00;;;;2077441;28;20210;-51
2021/11/14 04:20:13;;;;;;;12.47;11.37;;;;;21.40;100711.00;;;;2078063;28;20352;-50
2021/11/14 04:21:14;;;;;;;13.67;12.40;;;;;21.30;100714.00;;;;2077658;28;20210;-50
2021/11/14 04:22:14;;;;;;;12.83;11.63;;;;;21.30;100715.00;;;;2077792;28;20213;-50
2021/11/14 04:23:17;;;;;;;12.50;11.37;;;;;21.30;100715.00;;;;2078143;28;20210;-50
2021/11/14 04:24:17;;;;;;;13.23;12.07;;;;;21.30;100720.00;;;;2078159;28;20627;-51
2021/11/14 04:25:18;;;;;;;14.00;12.80;;;;;21.30;100715.00;;;;2075260;28;20225;-50
2021/11/14 04:26:18;;;;;;;13.50;12.40;;;;;21.30;100712.00;;;;2071316;28;20210;-50
2021/11/14 04:27:19;;;;;;;12.80;11.70;;;;;21.30;100714.00;;;;2076530;28;20513;-50
2021/11/14 04:28:19;;;;;;;13.90;12.60;;;;;21.30;100721.00;;;;2071375;28;20222;-51
2021/11/14 04:29:19;;;;;;;14.80;13.60;;;;;21.30;100718.00;;;;2070374;28;20206;-51
2021/11/14 04:30:20;;;;;;;13.57;12.37;;;;;21.30;100719.00;;;;2070521;28;20582;-50
2021/11/14 04:31:21;;;;;;;14.17;12.77;;;;;21.20;100724.00;;;;2070376;28;20206;-51
2021/11/14 04:32:22;;;;;;;13.00;11.90;;;;;21.30;100723.00;;;;2070536;28;20218;-50
2021/11/14 04:33:22;;;;;;;13.10;12.00;;;;;21.30;100720.00;;;;2070460;28;20206;-51
2021/11/14 04:34:22;;;;;;;14.00;12.80;;;;;21.30;100723.00;;;;2070580;28;20587;-51
2021/11/14 04:35:23;;;;;;;14.40;13.10;;;;;21.30;100720.00;;;;2070636;28;20580;-50
2021/11/14 04:36:23;;;;;;;13.13;11.93;;;;;21.30;100724.00;;;;2070132;28;20213;-50
2021/11/14 04:37:23;;;;;;;14.40;13.10;;;;;21.30;100732.00;;;;2069114;28;20221;-50
2021/11/14 04:38:24;;;;;;;13.00;11.80;;;;;21.30;100733.00;;;;2070034;28;20294;-50
2021/11/14 04:39:24;;;;;;;13.17;12.03;;;;;21.30;100738.00;;;;2068700;28;20202;-50
2021/11/14 04:40:25;;;;;;;14.20;13.00;;;;;21.20;100735.00;;;;2068553;28;20218;-50
2021/11/14 04:41:26;;;;;;;13.68;12.38;;;;;21.30;100732.00;;;;2067856;28;20587;-51
2021/11/14 04:42:26;;;;;;;13.57;12.37;;;;;21.30;100739.00;;;;2069984;28;20215;-50
2021/11/14 04:43:26;;;;;;;14.50;13.20;;;;;21.30;100737.00;;;;2069769;28;20732;-50
2021/11/14 04:44:27;;;;;;;14.17;12.90;;;;;21.30;100739.00;;;;2069884;28;20244;-51
2021/11/14 04:45:27;;;;;;;14.33;13.13;;;;;21.20;100737.00;;;;2070051;28;20301;-49
2021/11/14 04:46:27;;;;;;;13.60;12.50;;;;;21.30;100736.00;;;;2074387;28;20900;-51
2021/11/14 04:47:28;;;;;;;14.50;13.20;;;;;21.20;100735.00;;;;2077854;28;20222;-51
2021/11/14 04:48:28;;;;;;;15.23;13.73;;;;;21.30;100733.00;;;;2078167;28;20213;-50
2021/11/14 04:49:29;;;;;;;15.30;14.00;;;;;21.20;100738.00;;;;2076899;28;20339;-50
2021/11/14 04:50:29;;;;;;;14.73;13.20;;;;;21.20;100742.00;;;;2077768;28;20971;-51
2021/11/14 04:51:29;;;;;;;15.90;14.17;;;;;21.10;100739.00;;;;2077244;28;20222;-51
2021/11/14 04:52:30;;;;;;;15.53;14.10;;;;;21.20;100740.00;;;;2077406;28;20283;-50
2021/11/14 04:53:30;;;;;;;15.60;14.20;;;;;21.20;100748.00;;;;2077949;28;20296;-50
2021/11/14 04:54:31;;;;;;;15.30;13.90;;;;;21.20;100750.00;;;;2078093;28;20221;-51
2021/11/14 04:55:32;;;;;;;16.10;14.77;;;;;21.20;100747.00;;;;2078249;28;20933;-50
2021/11/14 04:56:33;;;;;;;15.82;14.38;;;;;21.20;100747.00;;;;2076533;28;20225;-50
2021/11/14 04:57:33;;;;;;;14.63;13.43;;;;;21.20;100756.00;;;;2071590;28;20834;-50